createdAt,value
2018-07-06T00:00:13.966Z,18.48
2018-07-06T00:01:14.003Z,18.44
2018-07-06T00:02:14.042Z,18.48
2018-07-06T00:03:14.080Z,18.37
2018-07-06T00:04:14.121Z,18.42
2018-07-06T00:05:14.160Z,18.37
2018-07-06T00:06:14.200Z,18.44
2018-07-06T00:07:14.246Z,18.29
2018-07-06T00:08:14.279Z,18.29
2018-07-06T00:09:14.318Z,18.29
2018-07-06T00:10:14.357Z,18.20
2018-07-06T00:11:14.396Z,18.15
2018-07-06T00:12:14.436Z,18.20
2018-07-06T00:13:14.475Z,18.12
2018-07-06T00:14:14.516Z,18.03
2018-07-06T00:15:14.555Z,18.03
2018-07-06T00:16:14.602Z,18.02
2018-07-06T00:17:14.638Z,18.00
2018-07-06T00:18:14.673Z,17.93
2018-07-06T00:19:14.710Z,17.87
2018-07-06T00:20:14.754Z,17.96
2018-07-06T00:21:14.788Z,17.96
2018-07-06T00:22:14.828Z,17.89
2018-07-06T00:23:14.868Z,17.82
2018-07-06T00:24:14.908Z,17.74
2018-07-06T00:25:14.947Z,17.75
2018-07-06T00:26:14.987Z,17.75
2018-07-06T00:27:15.025Z,17.66
2018-07-06T00:28:15.065Z,17.66
2018-07-06T00:29:15.105Z,17.59
2018-07-06T00:30:15.143Z,17.54
2018-07-06T00:31:15.182Z,17.62
2018-07-06T00:32:15.221Z,17.71
2018-07-06T00:33:15.263Z,17.55
2018-07-06T00:34:15.302Z,17.55
2018-07-06T00:35:15.340Z,17.52
2018-07-06T00:36:15.377Z,17.51
2018-07-06T00:37:15.418Z,17.56
2018-07-06T00:38:15.470Z,17.55
2018-07-06T00:39:15.497Z,17.54
2018-07-06T00:40:15.535Z,17.54
2018-07-06T00:41:15.579Z,17.52
2018-07-06T00:42:15.616Z,17.55
2018-07-06T00:43:15.654Z,17.55
2018-07-06T00:44:15.692Z,17.51
2018-07-06T00:45:15.732Z,17.52
2018-07-06T00:46:15.772Z,17.48
2018-07-06T00:47:15.813Z,17.54
2018-07-06T00:48:15.848Z,17.66
2018-07-06T00:49:15.888Z,17.64
2018-07-06T00:50:15.927Z,17.56
2018-07-06T00:51:15.965Z,17.55
2018-07-06T00:52:16.006Z,17.74
2018-07-06T00:53:16.048Z,17.56
2018-07-06T00:54:16.084Z,17.63
2018-07-06T00:55:16.126Z,17.56
2018-07-06T00:56:16.162Z,17.55
2018-07-06T00:57:16.202Z,17.66
2018-07-06T00:58:16.247Z,17.70
2018-07-06T00:59:16.279Z,17.68
2018-07-06T01:00:16.319Z,17.74
2018-07-06T01:01:16.357Z,17.70
2018-07-06T01:02:16.397Z,17.72
2018-07-06T01:03:16.438Z,17.68
2018-07-06T01:04:16.476Z,17.68
2018-07-06T01:05:16.516Z,17.62
2018-07-06T01:06:16.607Z,17.64
2018-07-06T01:07:16.592Z,17.66
2018-07-06T01:08:16.633Z,17.71
2018-07-06T01:09:16.673Z,17.68
2018-07-06T01:10:16.839Z,17.64
2018-07-06T01:11:16.750Z,17.64
2018-07-06T01:12:16.791Z,17.63
2018-07-06T01:13:16.827Z,17.59
2018-07-06T01:14:16.869Z,17.52
2018-07-06T01:15:16.905Z,17.72
2018-07-06T01:16:16.945Z,17.56
2018-07-06T01:17:16.985Z,17.55
2018-07-06T01:18:17.023Z,17.52
2018-07-06T01:19:17.061Z,17.54
2018-07-06T01:20:17.105Z,17.52
2018-07-06T01:21:17.139Z,17.52
2018-07-06T01:22:17.178Z,17.48
2018-07-06T01:23:17.216Z,17.51
2018-07-06T01:24:17.257Z,17.64
2018-07-06T01:25:17.295Z,17.59
2018-07-06T01:26:17.350Z,17.51
2018-07-06T01:27:17.373Z,17.48
2018-07-06T01:28:17.412Z,17.55
2018-07-06T01:29:17.452Z,17.44
2018-07-06T01:30:17.491Z,17.44
2018-07-06T01:31:17.530Z,17.52
2018-07-06T01:32:17.576Z,17.52
2018-07-06T01:33:17.609Z,17.43
2018-07-06T01:34:17.649Z,17.44
2018-07-06T01:35:17.686Z,17.37
2018-07-06T01:36:17.725Z,17.31
2018-07-06T01:37:17.771Z,17.36
2018-07-06T01:38:17.804Z,17.26
2018-07-06T01:39:17.843Z,17.31
2018-07-06T01:40:17.884Z,17.33
2018-07-06T01:41:17.930Z,17.28
2018-07-06T01:42:17.960Z,17.36
2018-07-06T01:43:18.000Z,17.25
2018-07-06T01:44:18.035Z,17.26
2018-07-06T01:45:18.077Z,17.26
2018-07-06T01:46:18.114Z,17.18
2018-07-06T01:47:18.154Z,17.22
2018-07-06T01:48:18.192Z,17.14
2018-07-06T01:49:18.234Z,17.15
2018-07-06T01:50:18.270Z,17.15
2018-07-06T01:51:18.307Z,17.18
2018-07-06T01:52:18.347Z,17.16
2018-07-06T01:53:18.385Z,17.23
2018-07-06T01:54:18.425Z,17.14
2018-07-06T01:55:18.473Z,17.25
2018-07-06T01:56:18.502Z,17.21
2018-07-06T01:57:18.543Z,17.19
2018-07-06T01:58:18.585Z,17.15
2018-07-06T01:59:18.618Z,17.18
2018-07-06T02:00:18.657Z,17.15
2018-07-06T02:01:18.696Z,17.14
2018-07-06T02:02:18.736Z,17.07
2018-07-06T02:03:18.774Z,17.16
2018-07-06T02:04:18.812Z,17.16
2018-07-06T02:05:18.852Z,17.15
2018-07-06T02:06:18.891Z,17.19
2018-07-06T02:07:18.932Z,17.16
2018-07-06T02:08:18.969Z,17.12
2018-07-06T02:09:19.008Z,17.07
2018-07-06T02:10:19.047Z,17.06
2018-07-06T02:11:19.085Z,17.04
2018-07-06T02:12:19.124Z,16.93
2018-07-06T02:13:19.170Z,17.03
2018-07-06T02:14:19.202Z,17.00
2018-07-06T02:15:19.241Z,17.00
2018-07-06T02:16:19.279Z,16.91
2018-07-06T02:17:19.317Z,16.88
2018-07-06T02:18:19.359Z,16.85
2018-07-06T02:19:19.393Z,16.78
2018-07-06T02:20:19.436Z,16.83
2018-07-06T02:21:19.472Z,16.82
2018-07-06T02:22:19.510Z,16.88
2018-07-06T02:23:19.547Z,16.86
2018-07-06T02:24:19.585Z,16.88
2018-07-06T02:25:19.625Z,16.88
2018-07-06T02:26:19.664Z,16.85
2018-07-06T02:27:19.703Z,16.85
2018-07-06T02:28:19.749Z,16.89
2018-07-06T02:29:19.779Z,16.93
2018-07-06T02:30:19.820Z,16.91
2018-07-06T02:31:19.860Z,16.85
2018-07-06T02:32:19.896Z,16.82
2018-07-06T02:33:19.937Z,16.81
2018-07-06T02:34:19.988Z,16.76
2018-07-06T02:35:20.012Z,16.75
2018-07-06T02:36:20.051Z,16.71
2018-07-06T02:37:20.089Z,16.70
2018-07-06T02:38:20.128Z,16.61
2018-07-06T02:39:20.166Z,16.57
2018-07-06T02:40:20.205Z,16.56
2018-07-06T02:41:20.244Z,16.64
2018-07-06T02:42:20.285Z,16.60
2018-07-06T02:43:20.322Z,16.68
2018-07-06T02:44:20.359Z,16.76
2018-07-06T02:45:20.400Z,16.83
2018-07-06T02:46:20.436Z,16.86
2018-07-06T02:47:20.478Z,16.88
2018-07-06T02:48:20.517Z,16.83
2018-07-06T02:49:20.551Z,16.96
2018-07-06T02:50:20.593Z,17.06
2018-07-06T02:51:20.628Z,17.08
2018-07-06T02:52:20.666Z,17.07
2018-07-06T02:53:20.705Z,17.16
2018-07-06T02:54:20.744Z,17.11
2018-07-06T02:55:20.783Z,17.18
2018-07-06T02:56:20.820Z,17.16
2018-07-06T02:57:20.975Z,17.14
2018-07-06T02:58:20.908Z,17.15
2018-07-06T02:59:20.936Z,17.08
2018-07-06T03:00:20.975Z,17.04
2018-07-06T03:01:21.028Z,17.04
2018-07-06T03:02:21.054Z,16.96
2018-07-06T03:03:21.090Z,16.98
2018-07-06T03:04:21.130Z,16.88
2018-07-06T03:05:21.168Z,16.93
2018-07-06T03:06:21.206Z,16.91
2018-07-06T03:07:21.244Z,16.96
2018-07-06T03:08:21.283Z,17.00
2018-07-06T03:09:21.325Z,16.98
2018-07-06T03:10:21.372Z,16.96
2018-07-06T03:11:21.408Z,16.88
2018-07-06T03:12:21.444Z,16.78
2018-07-06T03:13:21.485Z,16.67
2018-07-06T03:14:21.515Z,16.58
2018-07-06T03:15:21.560Z,16.46
2018-07-06T03:16:21.592Z,16.52
2018-07-06T03:17:21.636Z,16.42
2018-07-06T03:18:21.667Z,16.33
2018-07-06T03:19:21.705Z,16.42
2018-07-06T03:20:21.745Z,16.33
2018-07-06T03:21:21.785Z,16.25
2018-07-06T03:22:21.820Z,16.20
2018-07-06T03:23:21.857Z,16.09
2018-07-06T03:24:21.904Z,16.14
2018-07-06T03:25:21.936Z,16.11
2018-07-06T03:26:21.973Z,16.05
2018-07-06T03:27:22.011Z,16.07
2018-07-06T03:28:22.140Z,16.04
2018-07-06T03:29:22.101Z,15.97
2018-07-06T03:30:22.127Z,16.01
2018-07-06T03:31:22.166Z,15.96
2018-07-06T03:32:22.206Z,15.93
2018-07-06T03:33:22.241Z,15.97
2018-07-06T03:34:22.279Z,15.94
2018-07-06T03:35:22.319Z,15.92
2018-07-06T03:36:22.364Z,15.90
2018-07-06T03:37:22.394Z,15.93
2018-07-06T03:38:22.434Z,15.92
2018-07-06T03:39:22.471Z,15.93
2018-07-06T03:40:22.509Z,15.96
2018-07-06T03:41:22.547Z,15.93
2018-07-06T03:42:22.585Z,15.83
2018-07-06T03:43:22.623Z,15.92
2018-07-06T03:44:22.670Z,15.93
2018-07-06T03:45:22.701Z,15.89
2018-07-06T03:46:22.738Z,15.83
2018-07-06T03:47:22.777Z,15.90
2018-07-06T03:48:22.815Z,15.87
2018-07-06T03:49:22.852Z,15.89
2018-07-06T03:50:22.891Z,15.90
2018-07-06T03:51:22.929Z,15.90
2018-07-06T03:52:22.973Z,15.96
2018-07-06T03:53:23.006Z,15.97
2018-07-06T03:54:23.044Z,15.96
2018-07-06T03:55:23.082Z,15.93
2018-07-06T03:56:23.119Z,16.00
2018-07-06T03:57:23.159Z,16.04
2018-07-06T03:58:23.196Z,16.04
2018-07-06T03:59:23.232Z,16.07
2018-07-06T04:00:23.270Z,16.05
2018-07-06T04:01:23.312Z,16.09
2018-07-06T04:02:23.349Z,16.09
2018-07-06T04:03:23.385Z,16.08
2018-07-06T04:04:23.424Z,16.15
2018-07-06T04:05:23.463Z,16.15
2018-07-06T04:06:23.500Z,16.11
2018-07-06T04:07:23.538Z,16.21
2018-07-06T04:08:23.576Z,16.25
2018-07-06T04:09:23.617Z,16.25
2018-07-06T04:10:23.654Z,16.28
2018-07-06T04:11:23.694Z,16.25
2018-07-06T04:12:23.730Z,16.27
2018-07-06T04:13:23.769Z,16.38
2018-07-06T04:14:23.808Z,16.34
2018-07-06T04:15:23.844Z,16.33
2018-07-06T04:16:23.885Z,16.31
2018-07-06T04:17:23.923Z,16.35
2018-07-06T04:18:23.961Z,16.38
2018-07-06T04:19:24.005Z,16.50
2018-07-06T04:20:24.036Z,16.61
2018-07-06T04:21:24.076Z,16.64
2018-07-06T04:22:24.115Z,16.73
2018-07-06T04:23:24.152Z,16.82
2018-07-06T04:24:24.192Z,16.89
2018-07-06T04:25:24.232Z,17.00
2018-07-06T04:26:24.325Z,16.97
2018-07-06T04:27:24.305Z,17.06
2018-07-06T04:28:24.345Z,17.11
2018-07-06T04:29:24.391Z,17.14
2018-07-06T04:30:24.423Z,17.21
2018-07-06T04:31:24.461Z,17.16
2018-07-06T04:32:24.507Z,17.16
2018-07-06T04:33:24.539Z,17.16
2018-07-06T04:34:24.574Z,17.16
2018-07-06T04:35:24.613Z,17.16
2018-07-06T04:36:24.652Z,17.19
2018-07-06T04:37:24.692Z,17.19
2018-07-06T04:38:24.729Z,17.21
2018-07-06T04:39:24.776Z,17.25
2018-07-06T04:40:24.807Z,17.23
2018-07-06T04:41:24.845Z,17.22
2018-07-06T04:42:24.892Z,17.18
2018-07-06T04:43:24.925Z,17.22
2018-07-06T04:44:24.962Z,17.23
2018-07-06T04:45:25.000Z,17.22
2018-07-06T04:46:25.042Z,17.22
2018-07-06T04:47:25.077Z,17.31
2018-07-06T04:48:25.116Z,17.28
2018-07-06T04:49:25.154Z,17.40
2018-07-06T04:50:25.195Z,17.49
2018-07-06T04:51:25.236Z,17.40
2018-07-06T04:52:25.271Z,17.40
2018-07-06T04:53:25.310Z,17.44
2018-07-06T04:54:25.350Z,17.40
2018-07-06T04:55:25.397Z,17.41
2018-07-06T04:56:25.434Z,17.51
2018-07-06T04:57:25.462Z,17.48
2018-07-06T04:58:25.502Z,17.41
2018-07-06T04:59:25.558Z,17.40
2018-07-06T05:00:25.579Z,17.46
2018-07-06T05:01:25.618Z,17.54
2018-07-06T05:02:25.757Z,17.41
2018-07-06T05:03:25.695Z,17.41
2018-07-06T05:04:25.743Z,17.41
2018-07-06T05:05:25.774Z,17.46
2018-07-06T05:06:25.811Z,17.49
2018-07-06T05:07:25.901Z,17.43
2018-07-06T05:08:25.892Z,17.40
2018-07-06T05:09:25.928Z,17.41
2018-07-06T05:10:25.968Z,17.31
2018-07-06T05:11:26.005Z,17.28
2018-07-06T05:12:26.046Z,17.25
2018-07-06T05:13:26.084Z,17.30
2018-07-06T05:14:26.123Z,17.41
2018-07-06T05:15:26.172Z,17.40
2018-07-06T05:16:26.198Z,17.43
2018-07-06T05:17:26.237Z,17.48
2018-07-06T05:18:26.279Z,17.54
2018-07-06T05:19:26.318Z,17.49
2018-07-06T05:20:26.355Z,17.63
2018-07-06T05:21:26.446Z,17.78
2018-07-06T05:22:26.431Z,17.97
2018-07-06T05:23:26.468Z,18.00
2018-07-06T05:24:26.508Z,18.00
2018-07-06T05:25:26.548Z,18.18
2018-07-06T05:26:26.591Z,18.23
2018-07-06T05:27:26.624Z,18.05
2018-07-06T05:28:26.664Z,17.90
2018-07-06T05:29:26.702Z,17.84
2018-07-06T05:30:26.742Z,17.81
2018-07-06T05:31:26.779Z,17.74
2018-07-06T05:32:26.818Z,17.72
2018-07-06T05:33:26.858Z,17.82
2018-07-06T05:34:26.896Z,17.89
2018-07-06T05:35:26.935Z,17.96
2018-07-06T05:36:26.973Z,18.15
2018-07-06T05:37:27.013Z,18.18
2018-07-06T05:38:27.053Z,18.26
2018-07-06T05:39:27.091Z,18.30
2018-07-06T05:40:27.137Z,18.50
2018-07-06T05:41:27.173Z,18.60
2018-07-06T05:42:27.208Z,18.55
2018-07-06T05:43:27.249Z,18.66
2018-07-06T05:44:27.285Z,18.70
2018-07-06T05:45:27.326Z,18.73
2018-07-06T05:46:27.444Z,18.76
2018-07-06T05:47:27.403Z,18.90
2018-07-06T05:48:27.443Z,18.84
2018-07-06T05:49:27.481Z,18.90
2018-07-06T05:50:27.522Z,18.80
2018-07-06T05:51:27.561Z,18.78
2018-07-06T05:52:27.602Z,18.82
2018-07-06T05:53:27.639Z,18.73
2018-07-06T05:54:27.728Z,18.75
2018-07-06T05:55:27.726Z,18.69
2018-07-06T05:56:27.762Z,18.81
2018-07-06T05:57:27.795Z,18.82
2018-07-06T05:58:27.837Z,18.84
2018-07-06T05:59:27.874Z,19.06
2018-07-06T06:00:27.915Z,19.25
2018-07-06T06:01:28.053Z,19.43
2018-07-06T06:02:27.991Z,19.51
2018-07-06T06:03:28.043Z,19.81
2018-07-06T06:04:28.072Z,19.92
2018-07-06T06:05:28.110Z,20.03
2018-07-06T06:06:28.149Z,20.01
2018-07-06T06:07:28.189Z,20.02
2018-07-06T06:08:28.238Z,20.05
2018-07-06T06:09:28.268Z,19.88
2018-07-06T06:10:28.308Z,19.81
2018-07-06T06:11:28.347Z,19.81
2018-07-06T06:12:28.388Z,19.71
2018-07-06T06:13:28.427Z,19.68
2018-07-06T06:14:28.469Z,19.71
2018-07-06T06:15:28.657Z,19.55
2018-07-06T06:16:28.548Z,19.55
2018-07-06T06:17:28.593Z,19.47
2018-07-06T06:18:28.645Z,19.51
2018-07-06T06:19:28.669Z,19.39
2018-07-06T06:20:28.707Z,19.40
2018-07-06T06:21:28.748Z,19.19
2018-07-06T06:22:28.787Z,19.19
2018-07-06T06:23:28.828Z,19.06
2018-07-06T06:24:28.867Z,18.88
2018-07-06T06:25:28.907Z,18.91
2018-07-06T06:26:28.949Z,18.88
2018-07-06T06:27:28.987Z,18.81
2018-07-06T06:28:29.027Z,18.80
2018-07-06T06:29:29.066Z,18.81
2018-07-06T06:30:29.105Z,18.91
2018-07-06T06:31:29.147Z,18.90
2018-07-06T06:32:29.236Z,18.88
2018-07-06T06:33:29.306Z,18.98
2018-07-06T06:34:29.270Z,18.94
2018-07-06T06:35:29.305Z,18.95
2018-07-06T06:36:29.345Z,19.14
2018-07-06T06:37:29.384Z,19.21
2018-07-06T06:38:29.426Z,19.23
2018-07-06T06:39:29.506Z,19.25
2018-07-06T06:40:29.503Z,19.22
2018-07-06T06:41:29.543Z,19.10
2018-07-06T06:42:29.583Z,18.98
2018-07-06T06:43:29.622Z,19.18
2018-07-06T06:44:29.662Z,19.08
2018-07-06T06:45:29.703Z,18.92
2018-07-06T06:46:29.744Z,19.07
2018-07-06T06:47:29.806Z,19.13
2018-07-06T06:48:29.822Z,19.33
2018-07-06T06:49:29.862Z,19.40
2018-07-06T06:50:29.901Z,19.55
2018-07-06T06:51:29.957Z,19.54
2018-07-06T06:52:29.981Z,19.65
2018-07-06T06:53:30.021Z,19.55
2018-07-06T06:54:30.061Z,19.47
2018-07-06T06:55:30.100Z,19.26
2018-07-06T06:56:30.143Z,19.39
2018-07-06T06:57:30.180Z,19.33
2018-07-06T06:58:30.218Z,19.44
2018-07-06T06:59:30.258Z,19.43
2018-07-06T07:00:30.298Z,19.28
2018-07-06T07:01:30.338Z,19.39
2018-07-06T07:02:30.378Z,19.47
2018-07-06T07:03:30.416Z,19.48
2018-07-06T07:04:30.464Z,19.73
2018-07-06T07:05:30.497Z,19.77
2018-07-06T07:06:30.537Z,19.69
2018-07-06T07:07:30.638Z,19.78
2018-07-06T07:08:30.617Z,19.92
2018-07-06T07:09:30.656Z,19.76
2018-07-06T07:10:30.698Z,19.83
2018-07-06T07:11:30.736Z,19.87
2018-07-06T07:12:30.776Z,19.99
2018-07-06T07:13:30.817Z,20.17
2018-07-06T07:14:30.860Z,20.31
2018-07-06T07:15:30.896Z,20.24
2018-07-06T07:16:30.935Z,20.48
2018-07-06T07:17:30.976Z,20.42
2018-07-06T07:18:31.015Z,20.55
2018-07-06T07:19:31.056Z,20.59
2018-07-06T07:20:31.096Z,20.18
2018-07-06T07:21:31.140Z,20.16
2018-07-06T07:22:31.178Z,20.28
2018-07-06T07:23:31.217Z,20.35
2018-07-06T07:24:31.261Z,20.50
2018-07-06T07:25:31.299Z,20.55
2018-07-06T07:26:31.338Z,20.62
2018-07-06T07:27:31.378Z,20.59
2018-07-06T07:28:31.418Z,20.61
2018-07-06T07:29:31.461Z,20.64
2018-07-06T07:30:31.499Z,20.35
2018-07-06T07:31:31.539Z,20.47
2018-07-06T07:32:31.579Z,20.48
2018-07-06T07:33:31.621Z,20.47
2018-07-06T07:34:31.669Z,20.59
2018-07-06T07:35:31.700Z,20.32
2018-07-06T07:36:31.742Z,20.35
2018-07-06T07:37:31.783Z,20.55
2018-07-06T07:38:31.823Z,20.50
2018-07-06T07:39:31.863Z,20.59
2018-07-06T07:40:31.904Z,20.29
2018-07-06T07:41:31.944Z,20.17
2018-07-06T07:42:31.985Z,20.33
2018-07-06T07:43:32.029Z,20.54
2018-07-06T07:44:32.066Z,20.36
2018-07-06T07:45:32.108Z,20.10
2018-07-06T07:46:32.240Z,20.02
2018-07-06T07:47:32.187Z,19.91
2018-07-06T07:48:32.226Z,19.92
2018-07-06T07:49:32.274Z,19.91
2018-07-06T07:50:32.311Z,19.98
2018-07-06T07:51:32.351Z,19.92
2018-07-06T07:52:32.401Z,19.94
2018-07-06T07:53:32.440Z,20.03
2018-07-06T07:54:32.493Z,19.96
2018-07-06T07:55:32.511Z,19.78
2018-07-06T07:56:32.552Z,19.80
2018-07-06T07:57:32.592Z,19.71
2018-07-06T07:58:32.637Z,19.86
2018-07-06T07:59:32.680Z,19.86
2018-07-06T08:00:32.848Z,19.84
2018-07-06T08:01:32.759Z,19.96
2018-07-06T08:02:32.793Z,19.83
2018-07-06T08:03:32.833Z,19.98
2018-07-06T08:04:32.873Z,20.03
2018-07-06T08:05:32.914Z,20.03
2018-07-06T08:06:33.007Z,20.01
2018-07-06T08:07:32.994Z,20.23
2018-07-06T08:08:33.035Z,20.14
2018-07-06T08:09:33.074Z,20.11
2018-07-06T08:10:33.115Z,20.08
2018-07-06T08:11:35.446Z,20.08
2018-07-06T08:12:33.195Z,19.99
2018-07-06T08:13:33.240Z,20.02
2018-07-06T08:14:33.347Z,20.05
2018-07-06T08:15:33.323Z,19.98
2018-07-06T08:16:33.358Z,20.01
2018-07-06T08:17:33.397Z,20.02
2018-07-06T08:18:33.436Z,20.17
2018-07-06T08:19:33.476Z,20.23
2018-07-06T08:20:33.517Z,20.28
2018-07-06T08:21:33.559Z,20.24
2018-07-06T08:22:33.597Z,20.26
2018-07-06T08:23:33.640Z,20.33
2018-07-06T08:24:33.677Z,20.38
2018-07-06T08:25:33.772Z,20.42
2018-07-06T08:26:33.758Z,20.43
2018-07-06T08:27:33.798Z,20.38
2018-07-06T08:28:33.839Z,20.31
2018-07-06T08:29:33.878Z,20.36
2018-07-06T08:30:33.918Z,20.33
2018-07-06T08:31:34.067Z,20.38
2018-07-06T08:32:33.998Z,20.39
2018-07-06T08:33:34.041Z,20.50
2018-07-06T08:34:34.078Z,20.52
2018-07-06T08:35:34.118Z,20.62
2018-07-06T08:36:34.170Z,20.77
2018-07-06T08:37:34.198Z,20.66
2018-07-06T08:38:34.240Z,20.67
2018-07-06T08:39:34.329Z,20.64
2018-07-06T08:40:34.319Z,20.66
2018-07-06T08:41:34.359Z,20.69
2018-07-06T08:42:34.402Z,20.70
2018-07-06T08:43:34.439Z,20.62
2018-07-06T08:44:34.478Z,20.72
2018-07-06T08:45:34.522Z,20.82
2018-07-06T08:46:34.560Z,20.87
2018-07-06T08:47:34.606Z,20.87
2018-07-06T08:48:34.640Z,20.99
2018-07-06T08:49:34.683Z,20.88
2018-07-06T08:50:34.725Z,20.70
2018-07-06T08:51:34.763Z,20.77
2018-07-06T08:52:34.804Z,20.88
2018-07-06T08:53:34.845Z,20.91
2018-07-06T08:54:34.882Z,21.01
2018-07-06T08:55:34.922Z,21.12
2018-07-06T08:56:34.962Z,21.14
2018-07-06T08:57:35.004Z,21.12
2018-07-06T08:58:35.047Z,21.19
2018-07-06T08:59:35.084Z,21.21
2018-07-06T09:00:35.127Z,21.40
2018-07-06T09:01:35.165Z,21.31
2018-07-06T09:02:35.205Z,21.46
2018-07-06T09:03:35.244Z,21.50
2018-07-06T09:04:35.400Z,21.58
2018-07-06T09:05:35.377Z,21.67
2018-07-06T09:06:35.365Z,21.74
2018-07-06T09:07:35.424Z,21.69
2018-07-06T09:08:35.450Z,21.65
2018-07-06T09:09:35.488Z,21.61
2018-07-06T09:10:35.528Z,21.72
2018-07-06T09:11:35.570Z,21.71
2018-07-06T09:12:35.611Z,21.62
2018-07-06T09:13:35.651Z,21.58
2018-07-06T09:14:35.693Z,21.72
2018-07-06T09:15:35.739Z,21.64
2018-07-06T09:16:35.772Z,21.58
2018-07-06T09:17:35.811Z,21.61
2018-07-06T09:18:35.853Z,21.71
2018-07-06T09:19:36.059Z,21.64
2018-07-06T09:20:35.944Z,21.67
2018-07-06T09:21:35.975Z,21.59
2018-07-06T09:22:36.025Z,21.67
2018-07-06T09:23:36.061Z,21.69
2018-07-06T09:24:36.100Z,21.62
2018-07-06T09:25:36.228Z,21.86
2018-07-06T09:26:36.179Z,21.92
2018-07-06T09:27:36.227Z,21.92
2018-07-06T09:28:36.257Z,21.94
2018-07-06T09:29:36.299Z,22.06
2018-07-06T09:30:36.338Z,22.03
2018-07-06T09:31:36.381Z,22.12
2018-07-06T09:32:36.421Z,22.02
2018-07-06T09:33:36.463Z,21.94
2018-07-06T09:34:36.503Z,21.92
2018-07-06T09:35:36.547Z,21.91
2018-07-06T09:36:36.585Z,22.18
2018-07-06T09:37:36.629Z,22.14
2018-07-06T09:38:36.668Z,22.20
2018-07-06T09:39:36.708Z,22.25
2018-07-06T09:40:36.748Z,22.21
2018-07-06T09:41:36.788Z,22.22
2018-07-06T09:42:36.834Z,22.27
2018-07-06T09:43:36.870Z,22.12
2018-07-06T09:44:36.912Z,22.12
2018-07-06T09:45:36.954Z,22.14
2018-07-06T09:46:36.999Z,22.22
2018-07-06T09:47:37.035Z,22.37
2018-07-06T09:48:37.077Z,22.22
2018-07-06T09:49:37.116Z,22.05
2018-07-06T09:50:37.158Z,22.06
2018-07-06T09:51:37.199Z,22.21
2018-07-06T09:52:37.238Z,22.35
2018-07-06T09:53:37.280Z,22.21
2018-07-06T09:54:37.324Z,22.35
2018-07-06T09:55:37.367Z,22.21
2018-07-06T09:56:37.404Z,22.14
2018-07-06T09:57:37.445Z,22.07
2018-07-06T09:58:37.500Z,22.00
2018-07-06T09:59:37.527Z,21.68
2018-07-06T10:00:37.567Z,21.62
2018-07-06T10:01:37.618Z,21.64
2018-07-06T10:02:37.665Z,21.71
2018-07-06T10:03:37.691Z,21.75
2018-07-06T10:04:37.733Z,21.80
2018-07-06T10:05:37.806Z,21.90
2018-07-06T10:06:37.814Z,21.84
2018-07-06T10:07:37.854Z,21.83
2018-07-06T10:08:37.895Z,21.80
2018-07-06T10:09:37.935Z,21.61
2018-07-06T10:10:37.978Z,21.58
2018-07-06T10:11:38.022Z,21.49
2018-07-06T10:12:38.160Z,21.53
2018-07-06T10:13:38.099Z,21.61
2018-07-06T10:14:38.141Z,21.54
2018-07-06T10:15:38.180Z,21.62
2018-07-06T10:16:38.223Z,21.67
2018-07-06T10:17:38.264Z,21.53
2018-07-06T10:18:38.327Z,21.69
2018-07-06T10:19:38.415Z,21.82
2018-07-06T10:20:38.387Z,21.82
2018-07-06T10:21:38.433Z,21.90
2018-07-06T10:22:38.478Z,21.79
2018-07-06T10:23:38.509Z,21.68
2018-07-06T10:24:38.548Z,21.65
2018-07-06T10:25:38.640Z,21.69
2018-07-06T10:26:38.632Z,21.71
2018-07-06T10:27:38.670Z,21.80
2018-07-06T10:28:38.712Z,21.94
2018-07-06T10:29:38.752Z,22.03
2018-07-06T10:30:38.799Z,21.92
2018-07-06T10:31:38.835Z,22.14
2018-07-06T10:32:38.878Z,21.98
2018-07-06T10:33:38.988Z,21.96
2018-07-06T10:34:38.956Z,21.92
2018-07-06T10:35:38.997Z,21.84
2018-07-06T10:36:39.040Z,21.86
2018-07-06T10:37:39.083Z,21.79
2018-07-06T10:38:39.120Z,21.92
2018-07-06T10:39:39.411Z,21.80
2018-07-06T10:40:39.202Z,21.65
2018-07-06T10:41:39.252Z,21.75
2018-07-06T10:42:39.285Z,21.91
2018-07-06T10:43:39.324Z,22.20
2018-07-06T10:44:39.363Z,22.45
2018-07-06T10:45:39.406Z,22.51
2018-07-06T10:46:39.505Z,22.58
2018-07-06T10:47:39.488Z,22.62
2018-07-06T10:48:39.536Z,22.76
2018-07-06T10:49:39.571Z,22.82
2018-07-06T10:50:39.613Z,22.94
2018-07-06T10:51:39.651Z,23.00
2018-07-06T10:52:39.694Z,22.95
2018-07-06T10:53:39.737Z,22.72
2018-07-06T10:54:39.789Z,22.72
2018-07-06T10:55:39.823Z,22.75
2018-07-06T10:56:39.857Z,22.77
2018-07-06T10:57:39.899Z,22.91
2018-07-06T10:58:39.944Z,22.77
2018-07-06T10:59:39.983Z,22.83
2018-07-06T11:00:40.024Z,22.97
2018-07-06T11:01:40.066Z,22.91
2018-07-06T11:02:40.105Z,22.94
2018-07-06T11:03:40.190Z,22.85
2018-07-06T11:04:40.190Z,22.68
2018-07-06T11:05:40.229Z,22.51
2018-07-06T11:06:40.271Z,22.43
2018-07-06T11:07:40.314Z,22.68
2018-07-06T11:08:40.355Z,22.75
2018-07-06T11:09:40.396Z,22.98
2018-07-06T11:10:40.436Z,22.97
2018-07-06T11:11:40.527Z,23.00
2018-07-06T11:12:40.525Z,23.04
2018-07-06T11:13:40.562Z,23.16
2018-07-06T11:14:40.610Z,23.36
2018-07-06T11:15:40.646Z,23.16
2018-07-06T11:16:40.693Z,23.00
2018-07-06T11:17:40.736Z,22.76
2018-07-06T11:18:40.773Z,22.82
2018-07-06T11:19:40.815Z,22.68
2018-07-06T11:20:40.860Z,22.72
2018-07-06T11:21:40.897Z,22.76
2018-07-06T11:22:40.939Z,22.80
2018-07-06T11:23:40.987Z,22.91
2018-07-06T11:24:41.022Z,22.95
2018-07-06T11:25:41.065Z,22.85
2018-07-06T11:26:41.103Z,22.72
2018-07-06T11:27:41.153Z,22.86
2018-07-06T11:28:41.191Z,22.91
2018-07-06T11:29:41.229Z,22.79
2018-07-06T11:30:41.270Z,22.82
2018-07-06T11:31:41.313Z,22.77
2018-07-06T11:32:41.360Z,22.62
2018-07-06T11:33:41.395Z,22.73
2018-07-06T11:34:41.438Z,22.64
2018-07-06T11:35:41.479Z,22.77
2018-07-06T11:36:41.531Z,22.55
2018-07-06T11:37:41.562Z,22.67
2018-07-06T11:38:41.605Z,22.68
2018-07-06T11:39:41.646Z,22.65
2018-07-06T11:40:41.687Z,22.67
2018-07-06T11:41:41.728Z,22.64
2018-07-06T11:42:41.772Z,22.37
2018-07-06T11:43:41.812Z,22.55
2018-07-06T11:44:41.853Z,22.62
2018-07-06T11:45:41.902Z,22.65
2018-07-06T11:46:41.938Z,22.85
2018-07-06T11:47:41.982Z,22.79
2018-07-06T11:48:42.023Z,22.88
2018-07-06T11:49:42.062Z,22.94
2018-07-06T11:50:42.103Z,22.91
2018-07-06T11:51:42.148Z,22.86
2018-07-06T11:52:42.187Z,22.67
2018-07-06T11:53:42.231Z,22.62
2018-07-06T11:54:42.268Z,22.68
2018-07-06T11:55:42.310Z,22.77
2018-07-06T11:56:42.351Z,23.02
2018-07-06T11:57:42.396Z,22.88
2018-07-06T11:58:42.442Z,22.95
2018-07-06T11:59:42.474Z,23.12
2018-07-06T12:00:42.516Z,23.04
2018-07-06T12:01:42.609Z,23.12
2018-07-06T12:02:42.601Z,23.19
2018-07-06T12:03:42.641Z,23.38
2018-07-06T12:04:42.683Z,23.31
2018-07-06T12:05:42.725Z,23.31
2018-07-06T12:06:42.765Z,23.35
2018-07-06T12:07:42.808Z,23.16
2018-07-06T12:08:42.848Z,23.17
2018-07-06T12:09:42.898Z,23.13
2018-07-06T12:10:42.933Z,22.97
2018-07-06T12:11:42.976Z,22.80
2018-07-06T12:12:43.013Z,22.98
2018-07-06T12:13:43.057Z,22.94
2018-07-06T12:14:43.099Z,22.90
2018-07-06T12:15:43.143Z,22.86
2018-07-06T12:16:43.181Z,22.94
2018-07-06T12:17:43.221Z,22.91
2018-07-06T12:18:43.263Z,22.95
2018-07-06T12:19:43.308Z,22.86
2018-07-06T12:20:43.345Z,22.94
2018-07-06T12:21:43.387Z,22.98
2018-07-06T12:22:43.431Z,23.07
2018-07-06T12:23:43.470Z,23.10
2018-07-06T12:24:43.562Z,23.04
2018-07-06T12:25:43.553Z,23.01
2018-07-06T12:26:43.595Z,22.97
2018-07-06T12:27:43.661Z,22.91
2018-07-06T12:28:43.679Z,23.07
2018-07-06T12:29:43.724Z,22.98
2018-07-06T12:30:43.762Z,23.02
2018-07-06T12:31:43.802Z,23.10
2018-07-06T12:32:43.843Z,23.33
2018-07-06T12:33:43.896Z,23.47
2018-07-06T12:34:43.927Z,23.69
2018-07-06T12:35:43.969Z,23.63
2018-07-06T12:36:44.025Z,23.61
2018-07-06T12:37:44.052Z,23.61
2018-07-06T12:38:44.101Z,23.35
2018-07-06T12:39:44.135Z,23.50
2018-07-06T12:40:44.176Z,23.40
2018-07-06T12:41:44.222Z,23.23
2018-07-06T12:42:44.262Z,23.27
2018-07-06T12:43:44.304Z,23.19
2018-07-06T12:44:44.346Z,23.22
2018-07-06T12:45:44.392Z,23.27
2018-07-06T12:46:44.438Z,23.17
2018-07-06T12:47:44.468Z,23.33
2018-07-06T12:48:44.573Z,23.51
2018-07-06T12:49:44.554Z,23.73
2018-07-06T12:50:44.593Z,23.83
2018-07-06T12:51:44.636Z,23.73
2018-07-06T12:52:44.676Z,23.53